Baracoa, Cuba
Current Conditions -  °F | °C
As of 8:56 PM on Saturday 25 Oct 2014 (Local Time) from MUGM Reporting Station
Broken Clouds Broken Clouds  
Wind Chill: 84°   Ceiling: 28000
Heat Index: 96°   Visibility: 6mi
Dew Point: 79°   Wind: 12mph
Humidity: 85%   Direction: 220°SW
Pressure: 29.85"   Gusts: NA
Location:  20.35°N, 74.5°W
Report Text: MUGM 260056Z 22010KT 9999 FEW020 SCT150 BKN280 29/26 A2985 RMK SLP108 T02890261
Loading
Personal Weather Stations






























Interactive Weather Map
Tropical Storm Tracking
New forecast layout! Learn more

10-Day Weather Forecast

Advertisements
Track Severe Weather on mobile